Tinley Park, IL (60477)

20:13 CST 18. Prosinec 2014 (GMT -0600)
Chantilly | Change Station
CLOSE
Current Station
Osobní povětrnostní stanice
Location: Tinley Park, IL
Nadmořská výška: 709 ft
Poblíž povětrnostní stanice

Výška 709 ft 41.58 °N, 87.82 °W | Updated 8 minutes ago

Zataženo
Zataženo
25.5 °F
Pocit jako 26 °F
S
2.7
Vítr proměnlivý Vítr od západní

Dnes
Vysoké -- | Nízké -- °F
--% Možnost srážek
Včera
Vysoké -- | Nízké -- °F
Precip. -- inčů
7:12 AM 4:22 PM
Ubývající srpek, 11% visible
Tlak 30.26 inčů
Viditelnost 10.0 mílí
Zataženo Zataženo 2900 ft
Ochlazování větrem 26 °F
Rosný bod 22 °F
Vlhkost 85%
Dešťové srážky 0.00 inčů
Sněhová pokrývka Není k dispozici
UV záření 0 ze 12
Pyl .10 ze 12
Kvalita ovzduší Není k dispozici
Flu Activity Není k dispozici
METAR KIGQ 190155Z AUTO 25003KT 10SM OVC029 M03/M07 A3026 RMK AO2 T10281067

More Conditions Fewer Conditions

Tlak 30.26 inčů
Viditelnost 10.0 mílí
Zataženo Zataženo 2900 ft
Ochlazování větrem 26 °F
Rosný bod 22 °F
Vlhkost 85%
Dešťové srážky 0.00 inčů
Sněhová pokrývka Není k dispozici
UV záření 0 ze 12
Pyl .10 ze 12
Kvalita ovzduší Není k dispozici
Flu Activity Není k dispozici
METAR KIGQ 190155Z AUTO 25003KT 10SM OVC029 M03/M07 A3026 RMK AO2 T10281067

More Conditions Fewer Conditions

10-Day Weather Forecast

Almanac

Astronomie

Dec. 18, 2014 Východ Západ
Skutečný čas
Občanský soumrak
Námořní soumrak
Astronomický soumrak
Měsíc
Délka denního světla
Délka dne
Tomorrow will be .
, % of the Moon is Illuminated

Dnešní extrémy

State Highs State Lows

Community

WunderPhotos

Upload Photos

1,779,036 snímků staženo!

WunderBlogs® & News

Nearby

Kvalita ovzduší

  Kvalita ovzduší Index kvality ovzduší Polutant
Not available.

Výška sněhu

Station Hloubka Nadmořská výška

Seizmická činnost

Město Distance Mag. Čas & datum
Minimální zobrazený rozsah je 2.5.

Pobřežní teplota vody

Lokalita Teplota

Poblíž povětrnostní stanice